createdAt,value
2019-02-23T00:01:12.730Z,99301.88
2019-02-23T00:03:40.692Z,99309.00
2019-02-23T00:06:07.367Z,99313.06
2019-02-23T00:08:34.015Z,99317.23
2019-02-23T00:11:00.639Z,99321.34
2019-02-23T00:13:27.478Z,99322.92
2019-02-23T00:15:54.041Z,99334.41
2019-02-23T00:18:20.802Z,99332.91
2019-02-23T00:20:47.517Z,99331.70
2019-02-23T00:23:14.455Z,99337.03
2019-02-23T00:25:41.986Z,99339.89
2019-02-23T00:28:08.596Z,99338.08
2019-02-23T00:30:35.292Z,99352.36
2019-02-23T00:33:01.991Z,99353.52
2019-02-23T00:35:28.730Z,99367.38
2019-02-23T00:37:55.331Z,99368.03
2019-02-23T00:40:21.934Z,99367.02
2019-02-23T00:42:48.817Z,99371.58
2019-02-23T00:45:15.484Z,99375.14
2019-02-23T00:47:42.408Z,99379.19
2019-02-23T00:50:09.308Z,99378.16
2019-02-23T00:52:36.062Z,99390.91
2019-02-23T00:55:03.094Z,99389.95
2019-02-23T00:57:30.075Z,99397.98
2019-02-23T00:59:57.109Z,99400.86
2019-02-23T01:02:23.759Z,99406.84
2019-02-23T01:04:50.801Z,99406.61
2019-02-23T01:07:17.799Z,99390.36
2019-02-23T01:09:44.420Z,99385.69
2019-02-23T01:12:12.327Z,99386.16
2019-02-23T01:14:39.617Z,99391.13
2019-02-23T01:17:06.236Z,99400.39
2019-02-23T01:19:34.245Z,99402.98
2019-02-23T01:22:02.055Z,99403.47
2019-02-23T01:24:29.780Z,99414.99
2019-02-23T01:26:56.520Z,99419.55
2019-02-23T01:29:23.422Z,99418.38
2019-02-23T01:31:50.232Z,99427.86
2019-02-23T01:34:16.900Z,99432.00
2019-02-23T01:36:43.865Z,99441.95
2019-02-23T01:39:12.080Z,99437.27
2019-02-23T01:41:38.818Z,99440.37
2019-02-23T01:44:05.493Z,99441.31
2019-02-23T01:46:33.205Z,99442.07
2019-02-23T01:48:59.935Z,99448.25
2019-02-23T01:51:26.595Z,99446.55
2019-02-23T01:53:53.287Z,99448.39
2019-02-23T01:56:21.036Z,99448.32
2019-02-23T01:58:47.682Z,99447.22
2019-02-23T02:01:14.460Z,99452.93
2019-02-23T02:03:42.923Z,99452.17
2019-02-23T02:06:09.678Z,99448.41
2019-02-23T02:08:36.599Z,99462.91
2019-02-23T02:11:04.282Z,99468.66
2019-02-23T02:13:31.921Z,99470.09
2019-02-23T02:15:58.862Z,99474.78
2019-02-23T02:18:25.522Z,99475.98
2019-02-23T02:20:52.216Z,99476.94
2019-02-23T02:23:19.054Z,99482.17
2019-02-23T02:25:45.692Z,99484.25
2019-02-23T02:28:12.331Z,99486.05
2019-02-23T02:30:39.298Z,99487.06
2019-02-23T02:33:05.876Z,99499.62
2019-02-23T02:35:33.290Z,99501.91
2019-02-23T02:37:59.960Z,99503.30
2019-02-23T02:40:26.649Z,99505.87
2019-02-23T02:42:53.324Z,99512.19
2019-02-23T02:45:19.916Z,99515.72
2019-02-23T02:50:24.294Z,99522.97
2019-02-23T02:52:44.363Z,99523.91
2019-02-23T02:55:11.105Z,99523.80
2019-02-23T02:57:37.808Z,99521.95
2019-02-23T03:00:04.457Z,99523.91
2019-02-23T03:02:31.735Z,99522.60
2019-02-23T03:04:58.810Z,99521.90
2019-02-23T03:07:25.474Z,99530.82
2019-02-23T03:09:52.610Z,99531.08
2019-02-23T03:12:19.628Z,99533.42
2019-02-23T03:14:46.487Z,99539.48
2019-02-23T03:17:14.850Z,99539.48
2019-02-23T03:19:41.558Z,99543.65
2019-02-23T03:22:08.448Z,99548.65
2019-02-23T03:24:35.179Z,99542.43
2019-02-23T03:27:01.774Z,99543.78
2019-02-23T03:29:28.536Z,99544.80
2019-02-23T03:31:55.489Z,99546.80
2019-02-23T03:34:22.292Z,99550.47
2019-02-23T03:36:48.973Z,99547.20
2019-02-23T03:39:15.656Z,99549.97
2019-02-23T03:41:42.554Z,99546.83
2019-02-23T03:44:09.171Z,99560.39
2019-02-23T03:46:36.244Z,99565.46
2019-02-23T03:49:03.007Z,99569.70
2019-02-23T03:51:29.882Z,99574.59
2019-02-23T03:53:56.578Z,99574.00
2019-02-23T03:56:23.208Z,99572.02
2019-02-23T03:58:50.360Z,99579.64
2019-02-23T04:01:16.989Z,99580.56
2019-02-23T04:03:45.602Z,99577.16
2019-02-23T04:06:12.207Z,99583.13
2019-02-23T04:08:39.194Z,99581.30
2019-02-23T04:11:06.221Z,99589.72
2019-02-23T04:13:32.799Z,99591.58
2019-02-23T04:15:59.467Z,99588.61
2019-02-23T04:18:26.269Z,99591.39
2019-02-23T04:21:01.142Z,99600.03
2019-02-23T04:23:21.635Z,99589.94
2019-02-23T04:25:49.352Z,99589.45
2019-02-23T04:28:16.503Z,99591.51
2019-02-23T04:30:43.597Z,99599.59
2019-02-23T04:33:10.532Z,99596.62
2019-02-23T04:35:37.239Z,99600.69
2019-02-23T04:38:03.967Z,99606.87
2019-02-23T04:40:30.635Z,99595.72
2019-02-23T04:42:57.506Z,99601.98
2019-02-23T04:45:24.246Z,99603.48
2019-02-23T04:47:50.905Z,99596.33
2019-02-23T04:50:17.793Z,99601.67
2019-02-23T04:52:46.199Z,99592.48
2019-02-23T04:55:12.848Z,99595.48
2019-02-23T04:57:39.470Z,99596.30
2019-02-23T05:00:08.668Z,99596.55
2019-02-23T05:02:35.294Z,99595.55
2019-02-23T05:05:02.061Z,99594.72
2019-02-23T05:07:28.697Z,99592.59
2019-02-23T05:09:55.425Z,99599.05
2019-02-23T05:12:22.119Z,99595.64
2019-02-23T05:14:48.815Z,99603.72
2019-02-23T05:17:16.660Z,99607.85
2019-02-23T05:19:43.377Z,99608.06
2019-02-23T05:22:10.277Z,99620.45
2019-02-23T05:24:36.979Z,99624.47
2019-02-23T05:27:03.948Z,99628.50
2019-02-23T05:29:30.721Z,99633.63
2019-02-23T05:31:57.604Z,99637.72
2019-02-23T05:34:24.418Z,99639.88
2019-02-23T05:36:51.046Z,99634.41
2019-02-23T05:39:17.940Z,99643.17
2019-02-23T05:41:44.658Z,99640.95
2019-02-23T05:44:11.553Z,99634.61
2019-02-23T05:46:38.572Z,99633.80
2019-02-23T05:49:05.414Z,99631.80
2019-02-23T05:51:38.796Z,99634.48
2019-02-23T05:54:00.636Z,99630.41
2019-02-23T05:56:27.413Z,99631.44
2019-02-23T05:58:54.005Z,99630.66
2019-02-23T06:01:20.817Z,99626.51
2019-02-23T06:03:47.758Z,99629.52
2019-02-23T06:06:14.416Z,99628.50
2019-02-23T06:08:41.118Z,99625.48
2019-02-23T06:11:08.070Z,99632.48
2019-02-23T06:13:35.020Z,99637.88
2019-02-23T06:16:03.553Z,99632.25
2019-02-23T06:18:30.451Z,99644.22
2019-02-23T06:20:57.158Z,99643.36
2019-02-23T06:23:24.244Z,99640.33
2019-02-23T06:25:51.281Z,99642.09
2019-02-23T06:28:18.191Z,99653.84
2019-02-23T06:30:45.169Z,99661.28
2019-02-23T06:33:11.758Z,99661.22
2019-02-23T06:35:38.487Z,99662.66
2019-02-23T06:38:05.382Z,99659.72
2019-02-23T06:40:32.236Z,99658.42
2019-02-23T06:42:58.972Z,99668.64
2019-02-23T06:45:25.634Z,99667.57
2019-02-23T06:47:53.688Z,99674.67
2019-02-23T06:50:20.614Z,99669.70
2019-02-23T06:52:48.022Z,99667.57
2019-02-23T06:55:14.752Z,99664.89
2019-02-23T06:57:41.687Z,99660.74
2019-02-23T07:00:09.474Z,99663.23
2019-02-23T07:02:36.090Z,99658.25
2019-02-23T07:05:06.907Z,99664.70
2019-02-23T07:07:33.879Z,99665.63
2019-02-23T07:10:00.791Z,99667.89
2019-02-23T07:12:27.405Z,99666.78
2019-02-23T07:14:54.015Z,99669.25
2019-02-23T07:17:21.013Z,99665.72
2019-02-23T07:19:48.332Z,99665.31
2019-02-23T07:22:15.970Z,99673.46
2019-02-23T07:24:42.702Z,99674.19
2019-02-23T07:27:09.386Z,99673.59
2019-02-23T07:29:36.200Z,99666.02
2019-02-23T07:32:03.134Z,99671.94
2019-02-23T07:34:29.742Z,99658.74
2019-02-23T07:36:56.400Z,99653.15
2019-02-23T07:39:23.303Z,99657.83
2019-02-23T07:41:50.048Z,99664.61
2019-02-23T07:44:18.275Z,99665.87
2019-02-23T07:46:45.020Z,99657.16
2019-02-23T07:49:11.718Z,99657.38
2019-02-23T07:51:38.597Z,99650.73
2019-02-23T07:54:07.029Z,99658.79
2019-02-23T07:56:35.156Z,99654.35
2019-02-23T07:59:02.145Z,99655.08
2019-02-23T08:01:28.893Z,99655.09
2019-02-23T08:03:55.787Z,99647.26
2019-02-23T08:06:22.698Z,99648.80
2019-02-23T08:08:49.323Z,99652.58
2019-02-23T08:11:16.057Z,99649.81
2019-02-23T08:13:42.901Z,99654.98
2019-02-23T08:16:09.899Z,99651.20
2019-02-23T08:18:36.795Z,99648.38
2019-02-23T08:21:03.444Z,99652.19
2019-02-23T08:23:30.102Z,99650.61
2019-02-23T08:25:56.984Z,99640.45
2019-02-23T08:28:23.790Z,99644.56
2019-02-23T08:30:50.436Z,99642.56
2019-02-23T08:33:17.413Z,99643.28
2019-02-23T08:35:44.245Z,99646.47
2019-02-23T08:38:11.141Z,99653.82
2019-02-23T08:40:37.905Z,99662.20
2019-02-23T08:43:04.603Z,99665.42
2019-02-23T08:45:31.291Z,99669.39
2019-02-23T08:47:57.927Z,99668.96
2019-02-23T08:50:24.519Z,99667.44
2019-02-23T08:52:51.167Z,99670.67
2019-02-23T08:55:17.850Z,99671.28
2019-02-23T08:57:44.806Z,99681.72
2019-02-23T09:00:11.705Z,99681.67
2019-02-23T09:02:38.826Z,99679.39
2019-02-23T09:05:05.776Z,99683.47
2019-02-23T09:07:32.862Z,99678.45
2019-02-23T09:09:59.764Z,99676.23
2019-02-23T09:12:26.502Z,99681.03
2019-02-23T09:14:53.161Z,99677.31
2019-02-23T09:17:20.395Z,99684.83
2019-02-23T09:19:47.007Z,99685.39
2019-02-23T09:22:29.914Z,99682.69
2019-02-23T09:24:56.615Z,99682.47
2019-02-23T09:27:23.471Z,99679.28
2019-02-23T09:29:50.650Z,99677.89
2019-02-23T09:32:17.323Z,99686.82
2019-02-23T09:34:44.135Z,99686.72
2019-02-23T09:37:11.048Z,99684.78
2019-02-23T09:39:37.687Z,99680.08
2019-02-23T09:42:07.362Z,99680.69
2019-02-23T09:44:33.237Z,99681.28
2019-02-23T09:47:00.133Z,99679.86
2019-02-23T09:49:26.791Z,99683.61
2019-02-23T09:51:53.542Z,99682.02
2019-02-23T09:54:20.806Z,99678.97
2019-02-23T09:56:47.455Z,99679.47
2019-02-23T09:59:14.365Z,99683.94
2019-02-23T10:01:41.066Z,99682.88
2019-02-23T10:04:07.898Z,99681.05
2019-02-23T10:06:34.531Z,99683.78
2019-02-23T10:09:01.173Z,99681.80
2019-02-23T10:11:27.828Z,99672.24
2019-02-23T10:13:54.662Z,99672.33
2019-02-23T10:16:21.279Z,99670.58
2019-02-23T10:18:48.071Z,99664.12
2019-02-23T10:21:14.801Z,99653.23
2019-02-23T10:23:41.673Z,99647.83
2019-02-23T10:26:08.428Z,99643.84
2019-02-23T10:28:35.152Z,99642.51
2019-02-23T10:31:01.881Z,99640.86
2019-02-23T10:33:28.590Z,99639.20
2019-02-23T10:35:55.252Z,99640.61
2019-02-23T10:38:22.007Z,99634.91
2019-02-23T10:40:48.990Z,99619.05
2019-02-23T10:43:15.730Z,99618.34
2019-02-23T10:45:42.360Z,99619.83
2019-02-23T10:48:12.863Z,99616.02
2019-02-23T10:50:43.721Z,99617.23
2019-02-23T10:53:10.321Z,99615.27
2019-02-23T10:55:40.770Z,99618.94
2019-02-23T10:58:09.266Z,99628.55
2019-02-23T11:00:37.178Z,99621.66
2019-02-23T11:03:03.839Z,99621.66
2019-02-23T11:05:30.749Z,99615.23
2019-02-23T11:07:57.494Z,99610.58
2019-02-23T11:10:24.192Z,99606.38
2019-02-23T11:12:52.023Z,99591.19
2019-02-23T11:15:18.683Z,99588.23
2019-02-23T11:17:45.586Z,99590.47
2019-02-23T11:20:12.243Z,99577.88
2019-02-23T11:22:39.293Z,99567.48
2019-02-23T11:25:06.306Z,99568.02
2019-02-23T11:27:33.219Z,99560.66
2019-02-23T11:30:00.021Z,99570.74
2019-02-23T11:32:27.199Z,99573.00
2019-02-23T11:34:53.917Z,99575.80
2019-02-23T11:37:22.219Z,99570.36
2019-02-23T11:39:48.964Z,99573.39
2019-02-23T11:42:15.889Z,99574.15
2019-02-23T11:44:42.562Z,99567.73
2019-02-23T11:47:09.207Z,99583.08
2019-02-23T11:49:36.034Z,99582.40
2019-02-23T11:52:02.635Z,99579.41
2019-02-23T11:54:29.434Z,99576.66
2019-02-23T11:56:56.212Z,99577.13
2019-02-23T11:59:23.163Z,99574.89
2019-02-23T12:01:49.934Z,99565.71
2019-02-23T12:04:16.542Z,99561.80
2019-02-23T12:06:43.310Z,99543.43
2019-02-23T12:09:10.285Z,99537.80
2019-02-23T12:11:37.154Z,99529.90
2019-02-23T12:14:03.908Z,99534.39
2019-02-23T12:16:30.525Z,99540.31
2019-02-23T12:18:57.349Z,99530.69
2019-02-23T12:21:24.010Z,99540.64
2019-02-23T12:23:50.668Z,99538.99
2019-02-23T12:26:17.526Z,99550.23
2019-02-23T12:28:44.664Z,99542.33
2019-02-23T12:31:11.955Z,99551.97
2019-02-23T12:33:38.625Z,99560.98
2019-02-23T12:36:05.532Z,99557.65
2019-02-23T12:38:32.197Z,99546.55
2019-02-23T12:40:58.799Z,99539.27
2019-02-23T12:43:25.789Z,99558.17
2019-02-23T12:45:53.213Z,99558.59
2019-02-23T12:48:19.837Z,99557.66
2019-02-23T12:50:46.713Z,99555.76
2019-02-23T12:53:13.492Z,99548.24
2019-02-23T12:55:40.089Z,99536.16
2019-02-23T12:58:06.816Z,99535.13
2019-02-23T13:00:33.515Z,99521.69
2019-02-23T13:03:00.127Z,99515.64
2019-02-23T13:05:27.023Z,99512.14
2019-02-23T13:07:55.686Z,99524.42
2019-02-23T13:10:23.466Z,99519.70
2019-02-23T13:12:50.040Z,99510.41
2019-02-23T13:15:16.731Z,99508.31
2019-02-23T13:17:43.347Z,99505.83
2019-02-23T13:20:10.163Z,99502.47
2019-02-23T13:22:36.799Z,99491.91
2019-02-23T13:25:03.483Z,99494.75
2019-02-23T13:27:30.218Z,99489.50
2019-02-23T13:29:56.865Z,99480.20
2019-02-23T13:32:23.791Z,99490.04
2019-02-23T13:34:50.422Z,99492.58
2019-02-23T13:37:17.124Z,99485.94
2019-02-23T13:39:43.804Z,99472.53
2019-02-23T13:42:10.631Z,99471.75
2019-02-23T13:44:37.627Z,99468.84
2019-02-23T13:47:04.592Z,99472.14
2019-02-23T13:49:31.472Z,99470.69
2019-02-23T13:51:58.711Z,99469.51
2019-02-23T13:54:25.927Z,99478.30
2019-02-23T13:56:54.079Z,99480.92
2019-02-23T13:59:21.319Z,99479.12
2019-02-23T14:01:47.922Z,99476.95
2019-02-23T14:04:14.731Z,99482.78
2019-02-23T14:06:41.465Z,99476.69
2019-02-23T14:09:08.094Z,99476.55
2019-02-23T14:11:35.024Z,99473.31
2019-02-23T14:14:01.915Z,99474.06
2019-02-23T14:16:28.860Z,99474.57
2019-02-23T14:18:56.014Z,99462.40
2019-02-23T14:21:24.539Z,99468.98
2019-02-23T14:23:51.174Z,99468.82
2019-02-23T14:26:18.059Z,99461.23
2019-02-23T14:28:44.974Z,99466.08
2019-02-23T14:31:11.561Z,99465.20
2019-02-23T14:33:38.171Z,99458.33
2019-02-23T14:36:05.178Z,99474.89
2019-02-23T14:38:32.116Z,99466.25
2019-02-23T14:40:59.814Z,99470.99
2019-02-23T14:43:26.742Z,99462.07
2019-02-23T14:45:54.593Z,99461.39
2019-02-23T14:48:23.848Z,99462.47
2019-02-23T14:50:51.726Z,99463.31
2019-02-23T14:53:18.774Z,99467.92
2019-02-23T14:55:47.928Z,99462.95
2019-02-23T14:58:16.554Z,99462.23
2019-02-23T15:00:44.567Z,99459.72
2019-02-23T15:03:15.951Z,99465.03
2019-02-23T15:05:45.579Z,99472.88
2019-02-23T15:08:15.788Z,99469.93
2019-02-23T15:13:29.085Z,99452.54
2019-02-23T15:15:58.756Z,99455.23
2019-02-23T15:18:27.118Z,99459.34
2019-02-23T15:20:57.399Z,99461.76
2019-02-23T15:23:25.334Z,99464.16
2019-02-23T15:25:52.298Z,99459.74
2019-02-23T15:28:35.660Z,99462.00
2019-02-23T15:30:53.141Z,99470.69
2019-02-23T15:33:21.315Z,99477.48
2019-02-23T15:35:48.147Z,99475.70
2019-02-23T15:38:15.123Z,99465.81
2019-02-23T15:40:43.014Z,99475.08
2019-02-23T15:43:23.660Z,99476.40
2019-02-23T15:48:40.130Z,99455.44
2019-02-23T15:51:07.684Z,99454.41
2019-02-23T15:53:36.792Z,99473.16
2019-02-23T15:56:04.250Z,99471.09
2019-02-23T15:58:38.200Z,99471.23
2019-02-23T16:01:07.558Z,99481.47
2019-02-23T16:06:17.325Z,99477.38
2019-02-23T16:08:44.245Z,99487.36
2019-02-23T16:11:10.943Z,99494.91
2019-02-23T16:13:37.587Z,99503.66
2019-02-23T16:16:04.430Z,99505.19
2019-02-23T16:18:31.472Z,99508.36
2019-02-23T16:20:58.371Z,99506.40
2019-02-23T16:23:34.901Z,99506.92
2019-02-23T16:25:55.869Z,99507.83
2019-02-23T16:28:22.522Z,99512.23
2019-02-23T16:30:49.237Z,99518.50
2019-02-23T16:33:15.916Z,99520.30
2019-02-23T16:35:42.658Z,99536.09
2019-02-23T16:38:09.522Z,99535.39
2019-02-23T16:40:36.215Z,99532.94
2019-02-23T16:43:02.884Z,99540.10
2019-02-23T16:45:29.780Z,99537.59
2019-02-23T16:47:57.056Z,99548.03
2019-02-23T16:50:23.942Z,99558.41
2019-02-23T16:52:50.967Z,99557.80
2019-02-23T16:55:18.188Z,99561.32
2019-02-23T16:57:45.033Z,99557.69
2019-02-23T17:00:30.019Z,99562.22
2019-02-23T17:02:57.207Z,99567.21
2019-02-23T17:05:24.057Z,99577.58
2019-02-23T17:07:50.646Z,99586.58
2019-02-23T17:10:17.425Z,99588.23
2019-02-23T17:12:44.173Z,99586.30
2019-02-23T17:15:11.129Z,99589.41
2019-02-23T17:17:37.774Z,99588.58
2019-02-23T17:20:04.595Z,99602.06
2019-02-23T17:22:32.023Z,99603.73
2019-02-23T17:24:58.856Z,99607.97
2019-02-23T17:27:35.782Z,99608.09
2019-02-23T17:29:54.092Z,99612.00
2019-02-23T17:32:21.048Z,99619.47
2019-02-23T17:34:47.718Z,99626.53
2019-02-23T17:37:14.451Z,99625.63
2019-02-23T17:39:41.150Z,99627.52
2019-02-23T17:42:09.572Z,99643.68
2019-02-23T17:44:36.456Z,99628.87
2019-02-23T17:47:03.761Z,99631.55
2019-02-23T17:49:30.419Z,99637.83
2019-02-23T17:51:57.228Z,99642.48
2019-02-23T17:54:23.946Z,99642.34
2019-02-23T17:56:50.659Z,99642.25
2019-02-23T17:59:17.314Z,99645.88
2019-02-23T18:01:44.061Z,99647.16
2019-02-23T18:04:10.755Z,99649.58
2019-02-23T18:06:37.588Z,99649.39
2019-02-23T18:09:05.237Z,99649.66
2019-02-23T18:11:31.885Z,99647.98
2019-02-23T18:13:58.547Z,99636.36
2019-02-23T18:16:25.177Z,99638.42
2019-02-23T18:18:51.905Z,99637.38
2019-02-23T18:21:18.663Z,99640.01
2019-02-23T18:23:45.745Z,99634.16
2019-02-23T18:26:18.990Z,99634.05
2019-02-23T18:28:41.021Z,99631.87
2019-02-23T18:31:07.897Z,99636.94
2019-02-23T18:33:34.898Z,99633.23
2019-02-23T18:36:01.826Z,99637.13
2019-02-23T18:38:28.756Z,99633.36
2019-02-23T18:40:55.411Z,99636.88
2019-02-23T18:43:22.365Z,99645.41
2019-02-23T18:45:49.010Z,99647.37
2019-02-23T18:48:15.846Z,99653.05
2019-02-23T18:50:42.452Z,99654.23
2019-02-23T18:53:14.151Z,99648.48
2019-02-23T18:55:41.418Z,99649.82
2019-02-23T18:58:08.270Z,99646.27
2019-02-23T19:00:35.010Z,99650.89
2019-02-23T19:03:01.939Z,99654.31
2019-02-23T19:05:28.637Z,99661.83
2019-02-23T19:07:55.372Z,99662.30
2019-02-23T19:10:22.271Z,99670.16
2019-02-23T19:12:49.222Z,99679.83
2019-02-23T19:15:16.612Z,99688.44
2019-02-23T19:17:43.272Z,99686.08
2019-02-23T19:20:10.692Z,99687.89
2019-02-23T19:22:37.384Z,99688.17
2019-02-23T19:25:04.334Z,99690.67
2019-02-23T19:27:30.883Z,99687.36
2019-02-23T19:29:57.547Z,99692.91
2019-02-23T19:32:24.499Z,99690.72
2019-02-23T19:34:51.397Z,99693.45
2019-02-23T19:37:18.089Z,99690.48
2019-02-23T19:39:44.880Z,99691.19
2019-02-23T19:42:11.484Z,99699.56
2019-02-23T19:44:39.744Z,99692.45
2019-02-23T19:47:17.948Z,99692.98
2019-02-23T19:49:46.531Z,99693.67
2019-02-23T19:52:14.939Z,99686.88
2019-02-23T19:54:59.441Z,99685.48
2019-02-23T19:57:27.893Z,99686.11
2019-02-23T20:00:05.612Z,99681.59
2019-02-23T20:02:32.931Z,99677.39
2019-02-23T20:04:59.738Z,99677.62
2019-02-23T20:07:26.358Z,99688.84
2019-02-23T20:09:53.003Z,99684.20
2019-02-23T20:12:19.762Z,99678.91
2019-02-23T20:14:46.444Z,99680.52
2019-02-23T20:17:13.039Z,99678.56
2019-02-23T20:19:41.186Z,99682.64
2019-02-23T20:22:07.940Z,99689.38
2019-02-23T20:24:36.781Z,99687.31
2019-02-23T20:27:03.454Z,99681.95
2019-02-23T20:29:30.424Z,99684.20
2019-02-23T20:31:57.062Z,99688.28
2019-02-23T20:34:23.980Z,99691.66
2019-02-23T20:36:50.722Z,99693.33
2019-02-23T20:39:17.387Z,99702.13
2019-02-23T20:41:44.098Z,99695.06
2019-02-23T20:44:11.757Z,99695.44
2019-02-23T20:46:38.574Z,99692.22
2019-02-23T20:49:05.256Z,99694.59
2019-02-23T20:51:32.178Z,99698.17
2019-02-23T20:53:58.820Z,99708.10
2019-02-23T20:56:25.509Z,99717.80
2019-02-23T20:58:52.376Z,99719.87
2019-02-23T21:01:19.649Z,99716.05
2019-02-23T21:03:46.593Z,99715.98
2019-02-23T21:06:13.707Z,99715.58
2019-02-23T21:08:42.340Z,99711.22
2019-02-23T21:11:09.107Z,99715.12
2019-02-23T21:13:35.775Z,99711.47
2019-02-23T21:16:02.583Z,99708.41
2019-02-23T21:18:29.692Z,99707.27
2019-02-23T21:20:56.574Z,99709.86
2019-02-23T21:23:23.201Z,99711.78
2019-02-23T21:25:49.891Z,99719.48
2019-02-23T21:28:16.590Z,99722.84
2019-02-23T21:30:43.252Z,99728.34
2019-02-23T21:33:09.840Z,99716.72
2019-02-23T21:35:37.034Z,99701.85
2019-02-23T21:38:03.904Z,99710.98
2019-02-23T21:40:30.815Z,99712.39
2019-02-23T21:42:58.102Z,99710.28
2019-02-23T21:45:24.826Z,99710.44
2019-02-23T21:47:51.746Z,99705.72
2019-02-23T21:50:18.362Z,99707.09
2019-02-23T21:52:47.393Z,99706.47
2019-02-23T21:55:13.984Z,99702.27
2019-02-23T21:57:42.453Z,99699.22
2019-02-23T22:00:09.245Z,99689.42
2019-02-23T22:02:36.026Z,99695.66
2019-02-23T22:05:11.634Z,99699.81
2019-02-23T22:07:31.349Z,99701.31
2019-02-23T22:09:58.102Z,99688.84
2019-02-23T22:12:25.053Z,99691.41
2019-02-23T22:14:52.372Z,99695.13
2019-02-23T22:17:19.258Z,99689.94
2019-02-23T22:19:46.239Z,99688.50
2019-02-23T22:22:13.189Z,99693.63
2019-02-23T22:24:40.165Z,99691.81
2019-02-23T22:27:07.077Z,99673.23
2019-02-23T22:29:33.771Z,99677.67
2019-02-23T22:32:00.421Z,99679.80
2019-02-23T22:34:27.388Z,99689.67
2019-02-23T22:36:54.611Z,99690.89
2019-02-23T22:39:21.486Z,99687.52
2019-02-23T22:41:49.865Z,99688.23
2019-02-23T22:44:16.688Z,99686.80
2019-02-23T22:46:43.458Z,99684.87
2019-02-23T22:49:10.559Z,99682.94
2019-02-23T22:51:37.875Z,99679.02
2019-02-23T22:54:04.702Z,99680.59
2019-02-23T22:56:31.613Z,99678.33
2019-02-23T22:58:58.837Z,99675.46
2019-02-23T23:01:25.680Z,99681.00
2019-02-23T23:03:53.063Z,99678.00
2019-02-23T23:06:19.792Z,99678.38
2019-02-23T23:08:46.669Z,99668.75
2019-02-23T23:11:13.872Z,99661.27
2019-02-23T23:13:40.807Z,99657.98
2019-02-23T23:16:07.937Z,99660.48
2019-02-23T23:18:34.783Z,99659.13
2019-02-23T23:21:01.734Z,99655.86
2019-02-23T23:23:28.705Z,99657.56
2019-02-23T23:25:55.901Z,99666.39
2019-02-23T23:28:23.305Z,99660.43
2019-02-23T23:30:49.963Z,99666.77
2019-02-23T23:33:16.818Z,99665.01
2019-02-23T23:35:43.911Z,99666.94
2019-02-23T23:38:10.807Z,99663.20
2019-02-23T23:40:37.686Z,99676.44
2019-02-23T23:43:04.368Z,99671.31
2019-02-23T23:45:31.052Z,99668.59
2019-02-23T23:47:58.076Z,99668.22
2019-02-23T23:50:25.078Z,99654.08
2019-02-23T23:52:52.108Z,99653.27
2019-02-23T23:55:20.951Z,99643.66
2019-02-23T23:57:47.623Z,99645.78
